NCAR-RAP Real-Time Weather Data

Output produced by METARs form (26 May 2022  08:29 UTC)
found at http://weather.rap.ucar.edu/surface/
 
KABQ 260752Z AUTO VRB03KT 10SM CLR 18/M07 A3007 RMK AO2 SLP105 T01781072 $
KABQ 260652Z AUTO 10SM CLR 21/M07 A3007 RMK AO2 SLP106 T02061072 402720083
KABQ 260552Z AUTO 00000KT 10SM CLR 21/M07 A3006 RMK AO2 SLP109 T02061072 10267 20200 51014
KABQ 260452Z AUTO 35007KT 10SM CLR 22/M07 A3006 RMK AO2 SLP109 T02171072
KABQ 260352Z AUTO 34008KT 10SM CLR 22/M07 A3004 RMK AO2 SLP107 T02221072
KABQ 260252Z AUTO 31009KT 10SM CLR 23/M08 A3002 RMK AO2 SLP098 T02331078 53013
KABQ 260152Z AUTO 33011G22KT 10SM CLR 25/M09 A3000 RMK AO2 SLP092 T02501089
KABQ 260052Z AUTO 29015G22KT 10SM CLR 26/M09 A2998 RMK AO2 SLP089 T02611094
KABQ 252352Z AUTO 31015G24KT 10SM CLR 27/M11 A2997 RMK AO2 PK WND 30026/2259 SLP085 T02671106 10272 20194 56014
KABQ 252252Z 31015G25KT 10SM CLR 27/M11 A2998 RMK AO2 PK WND 31026/2213 SLP084 T02721111
KABQ 252152Z 32010G18KT 10SM CLR 26/M11 A3000 RMK AO2 SLP092 T02561111
KABQ 252052Z 34011G21KT 290V360 10SM CLR 25/M12 A3002 RMK AO2 SLP099 T02501117 56018
KABQ 251952Z 32017G24KT 10SM CLR 25/M12 A3004 RMK AO2 SLP105 T02501122
KABQ 251852Z VRB04KT 10SM CLR 21/M07 A3006 RMK AO2 SLP119 T02111072
KABQ 251752Z VRB05KT 10SM CLR 19/M03 A3008 RMK AO2 SLP127 T01941033 10194 20083 58010 $
KABQ 251652Z 29003KT 10SM FEW050 FEW300 17/M01 A3010 RMK AO2 SLP135 T01721011 $
KABQ 251552Z 00000KT 10SM FEW050 FEW300 14/01 A3011 RMK AO2 SLP138 T01440011 $
KABQ 251452Z 32005KT 10SM FEW300 13/02 A3011 RMK AO2 SLP140 T01280017 51016 $
KABQ 251352Z 32003KT 10SM FEW100 11/02 A3010 RMK AO2 SLP134 T01110017 $
KABQ 251252Z 36003KT 10SM FEW090 09/02 A3008 RMK AO2 SLP133 T00940017 $
KABQ 251152Z 10004KT 10SM FEW030 08/01 A3006 RMK AO2 SLP123 T00830011 10139 20083 53011
KABQ 251052Z 00000KT 10SM CLR 10/02 A3004 RMK AO2 SLP116 T01000017
KABQ 250952Z 01003KT 10SM CLR 11/02 A3003 RMK AO2 SLP111 T01060017
KABQ 250852Z 08011KT 10SM CLR 11/02 A3002 RMK AO2 SLP104 T01110022 53006
KABQ 250752Z 10008G19KT 050V120 10SM CLR 11/02 A3000 RMK AO2 SLP099 T01110017
KABQ 250652Z 10013G24KT 10SM CLR 12/02 A2999 RMK AO2 PK WND 08029/0626 WSHFT 0558 SLP096 APRNT FROPA T01170022 402280106
KABQ 250616Z 09018G27KT 10SM CLR 13/02 A2999 RMK AO2 PK WND 09028/0605 WSHFT 0558 APRNT FROPA T01280017
KABQ 250552Z 03005KT 10SM CLR 14/01 A3000 RMK AO2 SLP103 T01390006 10222 20133 51020
KABQ 250452Z 10007KT 10SM CLR 15/M01 A2998 RMK AO2 SLP094 T01501011
KABQ 250352Z 35006KT 10SM CLR 18/M09 A2995 RMK AO2 SLP082 T01831089
KABQ 250252Z 33008KT 10SM FEW000 19/M11 A2993 RMK AO2 SLP076 FU FEW000 T01941106 53023
KABQ 250152Z 34014G23KT 10SM FEW000 SCT140 21/M15 A2990 RMK AO2 PK WND 34032/0109 SLP062 FU FEW000 T02061150
KABQ 250052Z 31021G31KT 10SM FEW130 SCT250 22/M15 A2986 RMK AO2 PK WND 30031/0046 SLP052 T02171150
KABQ 242352Z 31015G27KT 10SM SCT140 BKN250 22/M14 A2985 RMK AO2 PK WND 29034/2316 SLP044 T02221139 10228 20172 55005
KABQ 242252Z 33011G23KT 10SM SCT140 BKN250 22/M11 A2985 RMK AO2 WSHFT 2211 SLP043 T02221106
KABQ 242231Z 01013KT 10SM SCT140 SCT250 22/M10 A2985 RMK AO2 WSHFT 2211 T02171100
KABQ 242152Z 30012G19KT 10SM SCT140 SCT250 22/M09 A2986 RMK AO2 SLP049 T02171094
KABQ 242052Z 34016G30KT 10SM SCT140 23/M12 A2987 RMK AO2 PK WND 30030/2045 SLP048 VIRGA E T02281117 56014
KABQ 241952Z 30014G30KT 10SM BKN140 22/M14 A2987 RMK AO2 PK WND 31035/1934 SLP049 VIRGA NW-NE T02171139
KABQ 241852Z 30020G33KT 10SM SCT120 22/M14 A2989 RMK AO2 PK WND 26033/1846 SLP056 VIRGA NE-SE T02171139
KABQ 241752Z VRB04KT 10SM FEW090 BKN110 17/M03 A2991 RMK AO2 SLP070 VIRGA SW T01721028 10189 20106 58006
KABQ 241652Z 00000KT 10SM FEW070 SCT130 17/00 A2993 RMK AO2 SLP075 VIRGA NE-SE T01670000
KABQ 241552Z 33009KT 10SM FEW050 BKN130 15/02 A2994 RMK AO2 SLP080 VIRGA NE-SE T01500017
KABQ 241452Z 30010KT 10SM BKN110 13/02 A2993 RMK AO2 SLP084 VIRGA NE T01280017 51005
KABQ 241352Z 31006KT 10SM FEW110 FEW130 SCT190 12/02 A2993 RMK AO2 SLP078 VIRGA DSNT E-S T01220017
KABQ 241252Z 01009KT 10SM FEW110 SCT130 BKN180 11/02 A2993 RMK AO2 SLP081 VIRGA E-OHD-W HZ SE-S T01060017
KABQ 241152Z 36008KT 10SM FEW002 BKN130 BKN180 12/02 A2992 RMK AO2 SLP072 FU FEW002 FU SE T01170022 10150 20117 55002
KABQ 241147Z 35007KT 10SM FEW002 BKN130 BKN180 12/02 A2992 RMK AO2 FU FEW002 FU SE
KABQ 241052Z 02008KT 10SM BKN130 12/03 A2991 RMK AO2 SLP068 T01170028 $
KABQ 240952Z 02007KT 10SM FEW110 SCT170 12/02 A2992 RMK AO2 SLP064 T01170022 $
KABQ 240852Z 36005KT 10SM SCT110 BKN170 13/02 A2993 RMK AO2 SLP067 T01280022 56007 $